sensor_id;sensor_type;location;lat;lon;timestamp;temperature;humidity
15413;DHT22;7805;49.554;7.632;2023-06-19T00:01:54;21.00;99.90
15413;DHT22;7805;49.554;7.632;2023-06-19T00:04:19;21.00;99.90
15413;DHT22;7805;49.554;7.632;2023-06-19T00:06:45;21.10;99.90
15413;DHT22;7805;49.554;7.632;2023-06-19T00:09:11;21.10;99.90
15413;DHT22;7805;49.554;7.632;2023-06-19T00:11:36;21.10;99.90
15413;DHT22;7805;49.554;7.632;2023-06-19T00:14:02;21.00;99.90
15413;DHT22;7805;49.554;7.632;2023-06-19T00:16:27;21.10;99.90
15413;DHT22;7805;49.554;7.632;2023-06-19T00:18:53;21.30;99.90
15413;DHT22;7805;49.554;7.632;2023-06-19T00:21:25;21.00;99.90
15413;DHT22;7805;49.554;7.632;2023-06-19T00:23:51;19.40;99.90
15413;DHT22;7805;49.554;7.632;2023-06-19T00:26:17;20.90;99.90
15413;DHT22;7805;49.554;7.632;2023-06-19T00:28:43;20.80;99.90
15413;DHT22;7805;49.554;7.632;2023-06-19T00:31:11;20.80;99.90
15413;DHT22;7805;49.554;7.632;2023-06-19T00:33:39;20.70;99.90
15413;DHT22;7805;49.554;7.632;2023-06-19T00:36:12;20.70;99.90
15413;DHT22;7805;49.554;7.632;2023-06-19T00:38:38;20.90;99.90
15413;DHT22;7805;49.554;7.632;2023-06-19T00:41:04;20.90;99.90
15413;DHT22;7805;49.554;7.632;2023-06-19T00:43:31;20.90;99.90
15413;DHT22;7805;49.554;7.632;2023-06-19T00:46:01;21.30;99.90
15413;DHT22;7805;49.554;7.632;2023-06-19T00:48:31;20.90;99.90
15413;DHT22;7805;49.554;7.632;2023-06-19T00:50:58;20.90;99.90
15413;DHT22;7805;49.554;7.632;2023-06-19T00:53:24;20.90;99.90
15413;DHT22;7805;49.554;7.632;2023-06-19T00:55:52;20.90;99.90
15413;DHT22;7805;49.554;7.632;2023-06-19T00:58:22;21.00;99.90
15413;DHT22;7805;49.554;7.632;2023-06-19T01:00:48;20.80;99.90
15413;DHT22;7805;49.554;7.632;2023-06-19T01:03:14;20.80;99.90
15413;DHT22;7805;49.554;7.632;2023-06-19T01:05:40;20.60;99.90
15413;DHT22;7805;49.554;7.632;2023-06-19T01:08:23;20.60;99.90
15413;DHT22;7805;49.554;7.632;2023-06-19T01:10:57;20.60;99.90
15413;DHT22;7805;49.554;7.632;2023-06-19T01:13:44;20.60;99.90
15413;DHT22;7805;49.554;7.632;2023-06-19T01:16:11;20.60;99.90
15413;DHT22;7805;49.554;7.632;2023-06-19T01:18:37;20.60;99.90
15413;DHT22;7805;49.554;7.632;2023-06-19T01:21:17;20.60;99.90
15413;DHT22;7805;49.554;7.632;2023-06-19T01:23:44;20.50;99.90
15413;DHT22;7805;49.554;7.632;2023-06-19T01:26:10;20.40;99.90
15413;DHT22;7805;49.554;7.632;2023-06-19T01:28:38;20.50;99.90
15413;DHT22;7805;49.554;7.632;2023-06-19T01:31:25;20.40;99.90
15413;DHT22;7805;49.554;7.632;2023-06-19T01:33:53;20.40;99.90
15413;DHT22;7805;49.554;7.632;2023-06-19T01:36:20;20.40;99.90
15413;DHT22;7805;49.554;7.632;2023-06-19T01:38:47;20.40;99.90
15413;DHT22;7805;49.554;7.632;2023-06-19T01:41:14;20.50;99.90
15413;DHT22;7805;49.554;7.632;2023-06-19T01:43:40;20.40;99.90
15413;DHT22;7805;49.554;7.632;2023-06-19T01:46:06;20.50;99.90
15413;DHT22;7805;49.554;7.632;2023-06-19T01:48:32;20.40;99.90
15413;DHT22;7805;49.554;7.632;2023-06-19T01:51:00;20.40;99.90
15413;DHT22;7805;49.554;7.632;2023-06-19T01:53:25;20.40;99.90
15413;DHT22;7805;49.554;7.632;2023-06-19T01:55:51;20.40;99.90
15413;DHT22;7805;49.554;7.632;2023-06-19T01:58:16;20.40;99.90
15413;DHT22;7805;49.554;7.632;2023-06-19T02:00:42;20.30;99.90
15413;DHT22;7805;49.554;7.632;2023-06-19T02:03:08;20.30;99.90
15413;DHT22;7805;49.554;7.632;2023-06-19T02:05:34;20.40;99.90
15413;DHT22;7805;49.554;7.632;2023-06-19T02:08:04;20.70;99.90
15413;DHT22;7805;49.554;7.632;2023-06-19T02:10:30;20.60;99.90
15413;DHT22;7805;49.554;7.632;2023-06-19T02:12:56;20.60;99.90
15413;DHT22;7805;49.554;7.632;2023-06-19T02:15:21;20.50;99.90
15413;DHT22;7805;49.554;7.632;2023-06-19T02:17:47;20.50;99.90
15413;DHT22;7805;49.554;7.632;2023-06-19T02:20:13;20.50;99.90
15413;DHT22;7805;49.554;7.632;2023-06-19T02:22:39;20.60;99.90
15413;DHT22;7805;49.554;7.632;2023-06-19T02:25:05;20.60;99.90
15413;DHT22;7805;49.554;7.632;2023-06-19T02:27:31;20.60;99.90
15413;DHT22;7805;49.554;7.632;2023-06-19T02:29:57;20.70;99.90
15413;DHT22;7805;49.554;7.632;2023-06-19T02:32:22;20.60;99.90
15413;DHT22;7805;49.554;7.632;2023-06-19T02:34:48;20.60;99.90
15413;DHT22;7805;49.554;7.632;2023-06-19T02:37:13;20.60;99.90
15413;DHT22;7805;49.554;7.632;2023-06-19T02:39:39;20.50;99.90
15413;DHT22;7805;49.554;7.632;2023-06-19T02:42:05;20.50;99.90
15413;DHT22;7805;49.554;7.632;2023-06-19T02:44:31;20.40;99.90
15413;DHT22;7805;49.554;7.632;2023-06-19T02:46:57;20.50;99.90
15413;DHT22;7805;49.554;7.632;2023-06-19T02:49:22;20.50;99.90
15413;DHT22;7805;49.554;7.632;2023-06-19T02:51:48;20.50;99.90
15413;DHT22;7805;49.554;7.632;2023-06-19T02:54:13;20.50;99.90
15413;DHT22;7805;49.554;7.632;2023-06-19T02:56:39;20.50;99.90
15413;DHT22;7805;49.554;7.632;2023-06-19T02:59:05;20.50;99.90
15413;DHT22;7805;49.554;7.632;2023-06-19T03:01:30;20.60;99.90
15413;DHT22;7805;49.554;7.632;2023-06-19T03:03:56;20.60;99.90
15413;DHT22;7805;49.554;7.632;2023-06-19T03:06:21;20.60;99.90
15413;DHT22;7805;49.554;7.632;2023-06-19T03:08:47;20.50;99.90
15413;DHT22;7805;49.554;7.632;2023-06-19T03:11:13;20.50;99.90
15413;DHT22;7805;49.554;7.632;2023-06-19T03:16:10;20.60;99.90
15413;DHT22;7805;49.554;7.632;2023-06-19T03:18:36;20.50;99.90
15413;DHT22;7805;49.554;7.632;2023-06-19T03:21:01;20.60;99.90
15413;DHT22;7805;49.554;7.632;2023-06-19T03:23:27;20.60;99.90
15413;DHT22;7805;49.554;7.632;2023-06-19T03:25:52;20.70;99.90
15413;DHT22;7805;49.554;7.632;2023-06-19T03:28:18;20.60;99.90
15413;DHT22;7805;49.554;7.632;2023-06-19T03:30:43;20.80;99.90
15413;DHT22;7805;49.554;7.632;2023-06-19T03:33:09;20.60;99.90
15413;DHT22;7805;49.554;7.632;2023-06-19T03:35:34;20.60;99.90
15413;DHT22;7805;49.554;7.632;2023-06-19T03:38:00;20.70;99.90
15413;DHT22;7805;49.554;7.632;2023-06-19T03:40:25;20.80;99.90
15413;DHT22;7805;49.554;7.632;2023-06-19T03:42:51;20.70;99.90
15413;DHT22;7805;49.554;7.632;2023-06-19T03:45:17;20.80;99.90
15413;DHT22;7805;49.554;7.632;2023-06-19T03:47:42;20.80;99.90
15413;DHT22;7805;49.554;7.632;2023-06-19T03:50:08;20.80;99.90
15413;DHT22;7805;49.554;7.632;2023-06-19T03:52:36;20.80;99.90
15413;DHT22;7805;49.554;7.632;2023-06-19T03:55:03;20.80;99.90
15413;DHT22;7805;49.554;7.632;2023-06-19T03:57:28;20.80;99.90
15413;DHT22;7805;49.554;7.632;2023-06-19T03:59:54;20.80;99.90
15413;DHT22;7805;49.554;7.632;2023-06-19T04:02:19;20.90;99.90
15413;DHT22;7805;49.554;7.632;2023-06-19T04:04:45;20.80;99.90
15413;DHT22;7805;49.554;7.632;2023-06-19T04:07:11;20.80;99.90
15413;DHT22;7805;49.554;7.632;2023-06-19T04:09:36;19.10;99.90
15413;DHT22;7805;49.554;7.632;2023-06-19T04:12:02;20.80;99.90
15413;DHT22;7805;49.554;7.632;2023-06-19T04:14:27;20.70;99.90
15413;DHT22;7805;49.554;7.632;2023-06-19T04:16:53;21.00;99.90
15413;DHT22;7805;49.554;7.632;2023-06-19T04:19:18;20.80;99.90
15413;DHT22;7805;49.554;7.632;2023-06-19T04:21:44;20.80;99.90
15413;DHT22;7805;49.554;7.632;2023-06-19T04:24:10;20.80;99.90
15413;DHT22;7805;49.554;7.632;2023-06-19T04:26:36;20.80;99.90
15413;DHT22;7805;49.554;7.632;2023-06-19T04:29:04;20.90;99.90
15413;DHT22;7805;49.554;7.632;2023-06-19T04:31:32;20.90;99.90
15413;DHT22;7805;49.554;7.632;2023-06-19T04:33:57;20.90;99.90
15413;DHT22;7805;49.554;7.632;2023-06-19T04:36:23;20.90;99.90
15413;DHT22;7805;49.554;7.632;2023-06-19T04:38:48;20.90;99.90
15413;DHT22;7805;49.554;7.632;2023-06-19T04:41:17;20.90;99.90
15413;DHT22;7805;49.554;7.632;2023-06-19T04:43:42;21.00;99.90
15413;DHT22;7805;49.554;7.632;2023-06-19T04:46:08;21.00;99.90
15413;DHT22;7805;49.554;7.632;2023-06-19T04:48:33;21.00;99.90
15413;DHT22;7805;49.554;7.632;2023-06-19T04:51:02;21.00;99.90
15413;DHT22;7805;49.554;7.632;2023-06-19T04:53:28;21.00;99.90
15413;DHT22;7805;49.554;7.632;2023-06-19T04:55:54;21.10;99.90
15413;DHT22;7805;49.554;7.632;2023-06-19T04:58:21;21.20;99.90
15413;DHT22;7805;49.554;7.632;2023-06-19T05:00:47;21.20;99.90
15413;DHT22;7805;49.554;7.632;2023-06-19T05:03:17;21.30;99.90
15413;DHT22;7805;49.554;7.632;2023-06-19T05:05:43;21.30;99.90
15413;DHT22;7805;49.554;7.632;2023-06-19T05:08:09;21.30;99.90
15413;DHT22;7805;49.554;7.632;2023-06-19T05:10:35;21.30;99.90
15413;DHT22;7805;49.554;7.632;2023-06-19T05:13:00;21.40;99.90
15413;DHT22;7805;49.554;7.632;2023-06-19T05:15:27;21.30;99.90
15413;DHT22;7805;49.554;7.632;2023-06-19T05:17:53;21.30;99.90
15413;DHT22;7805;49.554;7.632;2023-06-19T05:20:19;21.50;99.90
15413;DHT22;7805;49.554;7.632;2023-06-19T05:22:45;21.60;99.90
15413;DHT22;7805;49.554;7.632;2023-06-19T05:25:11;21.40;99.90
15413;DHT22;7805;49.554;7.632;2023-06-19T05:27:36;21.30;99.90
15413;DHT22;7805;49.554;7.632;2023-06-19T05:30:03;21.40;99.90
15413;DHT22;7805;49.554;7.632;2023-06-19T05:32:29;21.40;99.90
15413;DHT22;7805;49.554;7.632;2023-06-19T05:34:55;21.40;99.90
15413;DHT22;7805;49.554;7.632;2023-06-19T05:37:20;21.50;99.90
15413;DHT22;7805;49.554;7.632;2023-06-19T05:39:48;21.60;99.90
15413;DHT22;7805;49.554;7.632;2023-06-19T05:42:13;21.60;99.90
15413;DHT22;7805;49.554;7.632;2023-06-19T05:44:39;21.60;99.90
15413;DHT22;7805;49.554;7.632;2023-06-19T05:47:05;21.70;99.90
15413;DHT22;7805;49.554;7.632;2023-06-19T05:49:31;22.20;99.90
15413;DHT22;7805;49.554;7.632;2023-06-19T05:51:56;22.10;99.90
15413;DHT22;7805;49.554;7.632;2023-06-19T05:54:24;22.30;99.90
15413;DHT22;7805;49.554;7.632;2023-06-19T05:56:50;22.50;99.90
15413;DHT22;7805;49.554;7.632;2023-06-19T05:59:16;22.60;99.90
15413;DHT22;7805;49.554;7.632;2023-06-19T06:01:41;22.70;99.90
15413;DHT22;7805;49.554;7.632;2023-06-19T06:04:07;22.60;99.90
15413;DHT22;7805;49.554;7.632;2023-06-19T06:06:32;22.60;99.90
15413;DHT22;7805;49.554;7.632;2023-06-19T06:08:58;22.90;99.90
15413;DHT22;7805;49.554;7.632;2023-06-19T06:11:23;23.00;99.90
15413;DHT22;7805;49.554;7.632;2023-06-19T06:13:49;22.90;99.90
15413;DHT22;7805;49.554;7.632;2023-06-19T06:16:14;22.60;99.90
15413;DHT22;7805;49.554;7.632;2023-06-19T06:18:40;22.70;99.90
15413;DHT22;7805;49.554;7.632;2023-06-19T06:21:06;22.90;99.90
15413;DHT22;7805;49.554;7.632;2023-06-19T06:23:32;23.10;99.90
15413;DHT22;7805;49.554;7.632;2023-06-19T06:25:57;23.50;99.90
15413;DHT22;7805;49.554;7.632;2023-06-19T06:28:28;23.70;99.90
15413;DHT22;7805;49.554;7.632;2023-06-19T06:30:54;23.80;99.90
15413;DHT22;7805;49.554;7.632;2023-06-19T06:33:20;23.80;99.90
15413;DHT22;7805;49.554;7.632;2023-06-19T06:35:45;23.80;99.90
15413;DHT22;7805;49.554;7.632;2023-06-19T06:38:11;23.90;99.90
15413;DHT22;7805;49.554;7.632;2023-06-19T06:40:36;23.80;99.90
15413;DHT22;7805;49.554;7.632;2023-06-19T06:43:02;23.90;99.90
15413;DHT22;7805;49.554;7.632;2023-06-19T06:45:28;23.90;99.90
15413;DHT22;7805;49.554;7.632;2023-06-19T06:47:53;23.90;99.90
15413;DHT22;7805;49.554;7.632;2023-06-19T06:50:19;23.80;99.90
15413;DHT22;7805;49.554;7.632;2023-06-19T06:52:44;23.70;99.90
15413;DHT22;7805;49.554;7.632;2023-06-19T06:55:10;23.50;99.90
15413;DHT22;7805;49.554;7.632;2023-06-19T06:57:35;23.60;99.90
15413;DHT22;7805;49.554;7.632;2023-06-19T07:00:02;23.50;99.90
15413;DHT22;7805;49.554;7.632;2023-06-19T07:02:29;23.50;99.90
15413;DHT22;7805;49.554;7.632;2023-06-19T07:04:55;23.70;99.90
15413;DHT22;7805;49.554;7.632;2023-06-19T07:07:20;24.00;99.90
15413;DHT22;7805;49.554;7.632;2023-06-19T07:09:46;24.30;99.90
15413;DHT22;7805;49.554;7.632;2023-06-19T07:12:12;24.80;99.90
15413;DHT22;7805;49.554;7.632;2023-06-19T07:14:38;24.90;99.90
15413;DHT22;7805;49.554;7.632;2023-06-19T07:17:03;24.90;99.90
15413;DHT22;7805;49.554;7.632;2023-06-19T07:19:32;24.80;99.90
15413;DHT22;7805;49.554;7.632;2023-06-19T07:21:58;24.70;99.90
15413;DHT22;7805;49.554;7.632;2023-06-19T07:24:24;24.50;99.90
15413;DHT22;7805;49.554;7.632;2023-06-19T07:26:50;24.40;99.90
15413;DHT22;7805;49.554;7.632;2023-06-19T07:29:15;24.80;99.90
15413;DHT22;7805;49.554;7.632;2023-06-19T07:31:41;24.60;99.90
15413;DHT22;7805;49.554;7.632;2023-06-19T07:34:08;24.80;99.90
15413;DHT22;7805;49.554;7.632;2023-06-19T07:36:34;24.90;99.90
15413;DHT22;7805;49.554;7.632;2023-06-19T07:38:59;25.10;99.90
15413;DHT22;7805;49.554;7.632;2023-06-19T07:41:25;25.60;99.90
15413;DHT22;7805;49.554;7.632;2023-06-19T07:43:50;25.50;99.90
15413;DHT22;7805;49.554;7.632;2023-06-19T07:46:16;23.90;99.90
15413;DHT22;7805;49.554;7.632;2023-06-19T07:48:42;25.70;99.90
15413;DHT22;7805;49.554;7.632;2023-06-19T07:51:08;25.90;99.90
15413;DHT22;7805;49.554;7.632;2023-06-19T07:53:33;25.90;99.90
15413;DHT22;7805;49.554;7.632;2023-06-19T07:55:59;26.00;99.90
15413;DHT22;7805;49.554;7.632;2023-06-19T07:58:24;26.20;99.90
15413;DHT22;7805;49.554;7.632;2023-06-19T08:00:50;26.50;99.90
15413;DHT22;7805;49.554;7.632;2023-06-19T08:03:16;26.70;99.90
15413;DHT22;7805;49.554;7.632;2023-06-19T08:05:41;26.80;99.90
15413;DHT22;7805;49.554;7.632;2023-06-19T08:08:07;26.80;99.60
15413;DHT22;7805;49.554;7.632;2023-06-19T08:10:32;26.80;99.80
15413;DHT22;7805;49.554;7.632;2023-06-19T08:12:58;26.80;99.70
15413;DHT22;7805;49.554;7.632;2023-06-19T08:15:23;27.00;99.20
15413;DHT22;7805;49.554;7.632;2023-06-19T08:17:49;27.10;99.00
15413;DHT22;7805;49.554;7.632;2023-06-19T08:20:15;26.80;98.90
15413;DHT22;7805;49.554;7.632;2023-06-19T08:22:41;26.70;99.30
15413;DHT22;7805;49.554;7.632;2023-06-19T08:25:07;26.60;99.50
15413;DHT22;7805;49.554;7.632;2023-06-19T08:27:33;26.60;99.50
15413;DHT22;7805;49.554;7.632;2023-06-19T08:29:58;26.50;99.50
15413;DHT22;7805;49.554;7.632;2023-06-19T08:32:24;26.50;99.50
15413;DHT22;7805;49.554;7.632;2023-06-19T08:34:50;26.40;99.50
15413;DHT22;7805;49.554;7.632;2023-06-19T08:37:17;26.70;99.40
15413;DHT22;7805;49.554;7.632;2023-06-19T08:39:43;27.00;99.30
15413;DHT22;7805;49.554;7.632;2023-06-19T08:42:09;27.40;98.90
15413;DHT22;7805;49.554;7.632;2023-06-19T08:44:35;27.50;98.10
15413;DHT22;7805;49.554;7.632;2023-06-19T08:47:04;27.60;97.90
15413;DHT22;7805;49.554;7.632;2023-06-19T08:49:33;27.60;97.70
15413;DHT22;7805;49.554;7.632;2023-06-19T08:51:59;27.70;97.50
15413;DHT22;7805;49.554;7.632;2023-06-19T08:54:24;27.40;97.10
15413;DHT22;7805;49.554;7.632;2023-06-19T08:56:51;27.40;97.20
15413;DHT22;7805;49.554;7.632;2023-06-19T08:59:19;27.50;96.70
15413;DHT22;7805;49.554;7.632;2023-06-19T09:01:52;27.70;96.70
15413;DHT22;7805;49.554;7.632;2023-06-19T09:04:20;27.60;95.80
15413;DHT22;7805;49.554;7.632;2023-06-19T09:07:00;27.20;96.20
15413;DHT22;7805;49.554;7.632;2023-06-19T09:09:26;27.20;96.70
15413;DHT22;7805;49.554;7.632;2023-06-19T09:12:03;27.40;96.70
15413;DHT22;7805;49.554;7.632;2023-06-19T09:17:02;27.70;96.40
15413;DHT22;7805;49.554;7.632;2023-06-19T09:19:27;27.90;95.80
15413;DHT22;7805;49.554;7.632;2023-06-19T09:21:53;28.00;95.90
15413;DHT22;7805;49.554;7.632;2023-06-19T09:24:24;28.30;95.80
15413;DHT22;7805;49.554;7.632;2023-06-19T09:27:12;28.70;95.10
15413;DHT22;7805;49.554;7.632;2023-06-19T09:29:42;28.70;93.90
15413;DHT22;7805;49.554;7.632;2023-06-19T09:32:27;28.60;94.10
15413;DHT22;7805;49.554;7.632;2023-06-19T09:34:56;28.40;94.10
15413;DHT22;7805;49.554;7.632;2023-06-19T09:37:28;28.30;94.30
15413;DHT22;7805;49.554;7.632;2023-06-19T09:42:30;28.30;94.00
15413;DHT22;7805;49.554;7.632;2023-06-19T09:45:01;28.50;93.70
15413;DHT22;7805;49.554;7.632;2023-06-19T09:47:38;28.60;93.50
15413;DHT22;7805;49.554;7.632;2023-06-19T09:50:06;28.60;93.20
15413;DHT22;7805;49.554;7.632;2023-06-19T09:52:32;28.60;93.40
15413;DHT22;7805;49.554;7.632;2023-06-19T09:55:02;28.70;93.30
15413;DHT22;7805;49.554;7.632;2023-06-19T09:57:28;28.70;92.70
15413;DHT22;7805;49.554;7.632;2023-06-19T09:59:56;28.50;93.00
15413;DHT22;7805;49.554;7.632;2023-06-19T10:02:22;28.50;92.50
15413;DHT22;7805;49.554;7.632;2023-06-19T10:04:53;28.40;92.60
15413;DHT22;7805;49.554;7.632;2023-06-19T10:07:22;28.30;92.40
15413;DHT22;7805;49.554;7.632;2023-06-19T10:12:43;28.40;91.40
15413;DHT22;7805;49.554;7.632;2023-06-19T10:17:35;29.00;91.80
15413;DHT22;7805;49.554;7.632;2023-06-19T10:20:00;29.20;91.50
15413;DHT22;7805;49.554;7.632;2023-06-19T10:22:30;29.30;90.80
15413;DHT22;7805;49.554;7.632;2023-06-19T10:24:56;29.30;90.00
15413;DHT22;7805;49.554;7.632;2023-06-19T10:27:23;29.50;89.30
15413;DHT22;7805;49.554;7.632;2023-06-19T10:29:53;29.50;88.70
15413;DHT22;7805;49.554;7.632;2023-06-19T10:32:23;29.30;87.00
15413;DHT22;7805;49.554;7.632;2023-06-19T10:34:48;29.20;87.50
15413;DHT22;7805;49.554;7.632;2023-06-19T10:37:17;29.40;88.60
15413;DHT22;7805;49.554;7.632;2023-06-19T10:39:43;29.40;86.60
15413;DHT22;7805;49.554;7.632;2023-06-19T10:42:09;29.70;87.00
15413;DHT22;7805;49.554;7.632;2023-06-19T10:44:36;29.80;85.70
15413;DHT22;7805;49.554;7.632;2023-06-19T10:47:05;29.70;85.20
15413;DHT22;7805;49.554;7.632;2023-06-19T10:49:32;29.60;85.60
15413;DHT22;7805;49.554;7.632;2023-06-19T10:51:59;29.70;84.20
15413;DHT22;7805;49.554;7.632;2023-06-19T10:54:26;29.70;82.80
15413;DHT22;7805;49.554;7.632;2023-06-19T10:56:52;29.80;83.60
15413;DHT22;7805;49.554;7.632;2023-06-19T10:59:19;30.00;83.20
15413;DHT22;7805;49.554;7.632;2023-06-19T11:01:46;30.10;82.70
15413;DHT22;7805;49.554;7.632;2023-06-19T11:04:13;30.30;81.20
15413;DHT22;7805;49.554;7.632;2023-06-19T11:06:40;30.30;81.30
15413;DHT22;7805;49.554;7.632;2023-06-19T11:09:07;30.30;79.90
15413;DHT22;7805;49.554;7.632;2023-06-19T11:11:47;30.20;79.90
15413;DHT22;7805;49.554;7.632;2023-06-19T11:14:14;30.10;80.10
15413;DHT22;7805;49.554;7.632;2023-06-19T11:16:42;29.80;80.40
15413;DHT22;7805;49.554;7.632;2023-06-19T11:19:09;29.80;82.40
15413;DHT22;7805;49.554;7.632;2023-06-19T11:21:36;30.10;82.50
15413;DHT22;7805;49.554;7.632;2023-06-19T11:24:12;30.30;81.70
15413;DHT22;7805;49.554;7.632;2023-06-19T11:26:39;30.30;80.70
15413;DHT22;7805;49.554;7.632;2023-06-19T11:31:44;30.40;81.20
15413;DHT22;7805;49.554;7.632;2023-06-19T11:34:10;30.70;80.90
15413;DHT22;7805;49.554;7.632;2023-06-19T11:36:37;31.00;80.60
15413;DHT22;7805;49.554;7.632;2023-06-19T11:39:04;31.20;79.50
15413;DHT22;7805;49.554;7.632;2023-06-19T11:41:32;31.40;78.80
15413;DHT22;7805;49.554;7.632;2023-06-19T11:44:05;31.70;77.40
15413;DHT22;7805;49.554;7.632;2023-06-19T11:46:33;31.80;76.10
15413;DHT22;7805;49.554;7.632;2023-06-19T11:51:37;31.30;77.20
15413;DHT22;7805;49.554;7.632;2023-06-19T11:54:08;31.40;77.70
15413;DHT22;7805;49.554;7.632;2023-06-19T11:56:38;31.70;77.50
15413;DHT22;7805;49.554;7.632;2023-06-19T11:59:04;31.70;75.00
15413;DHT22;7805;49.554;7.632;2023-06-19T12:01:32;31.70;75.10
15413;DHT22;7805;49.554;7.632;2023-06-19T12:03:59;31.90;74.90
15413;DHT22;7805;49.554;7.632;2023-06-19T12:06:24;32.40;72.70
15413;DHT22;7805;49.554;7.632;2023-06-19T12:08:50;32.70;73.00
15413;DHT22;7805;49.554;7.632;2023-06-19T12:11:16;33.00;71.80
15413;DHT22;7805;49.554;7.632;2023-06-19T12:13:41;33.10;70.20
15413;DHT22;7805;49.554;7.632;2023-06-19T12:16:10;32.80;70.10
15413;DHT22;7805;49.554;7.632;2023-06-19T12:18:36;32.70;70.40
15413;DHT22;7805;49.554;7.632;2023-06-19T12:21:02;32.70;70.20
15413;DHT22;7805;49.554;7.632;2023-06-19T12:23:28;32.50;70.70
15413;DHT22;7805;49.554;7.632;2023-06-19T12:25:54;32.00;70.70
15413;DHT22;7805;49.554;7.632;2023-06-19T12:28:19;31.80;72.30
15413;DHT22;7805;49.554;7.632;2023-06-19T12:30:46;31.60;72.30
15413;DHT22;7805;49.554;7.632;2023-06-19T12:33:13;31.90;72.90
15413;DHT22;7805;49.554;7.632;2023-06-19T12:35:40;32.10;72.10
15413;DHT22;7805;49.554;7.632;2023-06-19T12:38:07;32.40;72.20
15413;DHT22;7805;49.554;7.632;2023-06-19T12:40:33;32.20;71.50
15413;DHT22;7805;49.554;7.632;2023-06-19T12:42:58;32.30;69.40
15413;DHT22;7805;49.554;7.632;2023-06-19T12:45:24;32.50;69.10
15413;DHT22;7805;49.554;7.632;2023-06-19T12:47:50;32.30;68.70
15413;DHT22;7805;49.554;7.632;2023-06-19T12:50:16;32.20;69.20
15413;DHT22;7805;49.554;7.632;2023-06-19T12:52:41;32.30;69.30
15413;DHT22;7805;49.554;7.632;2023-06-19T12:55:07;32.20;69.50
15413;DHT22;7805;49.554;7.632;2023-06-19T12:57:33;32.20;69.70
15413;DHT22;7805;49.554;7.632;2023-06-19T12:59:58;32.20;69.40
15413;DHT22;7805;49.554;7.632;2023-06-19T13:02:24;31.90;69.70
15413;DHT22;7805;49.554;7.632;2023-06-19T13:04:49;31.70;69.90
15413;DHT22;7805;49.554;7.632;2023-06-19T13:07:15;31.60;69.50
15413;DHT22;7805;49.554;7.632;2023-06-19T13:09:41;31.70;70.00
15413;DHT22;7805;49.554;7.632;2023-06-19T13:12:07;31.70;69.30
15413;DHT22;7805;49.554;7.632;2023-06-19T13:14:33;31.70;69.40
15413;DHT22;7805;49.554;7.632;2023-06-19T13:16:59;31.60;69.90
15413;DHT22;7805;49.554;7.632;2023-06-19T13:19:25;31.70;70.00
15413;DHT22;7805;49.554;7.632;2023-06-19T13:21:51;31.70;69.80
15413;DHT22;7805;49.554;7.632;2023-06-19T13:24:17;31.70;70.40
15413;DHT22;7805;49.554;7.632;2023-06-19T13:26:44;31.70;70.00
15413;DHT22;7805;49.554;7.632;2023-06-19T13:29:11;31.80;70.30
15413;DHT22;7805;49.554;7.632;2023-06-19T13:31:37;31.90;70.70
15413;DHT22;7805;49.554;7.632;2023-06-19T13:34:03;32.30;70.40
15413;DHT22;7805;49.554;7.632;2023-06-19T13:36:28;32.20;69.70
15413;DHT22;7805;49.554;7.632;2023-06-19T13:38:55;32.40;69.00
15413;DHT22;7805;49.554;7.632;2023-06-19T13:41:20;32.70;67.50
15413;DHT22;7805;49.554;7.632;2023-06-19T13:43:49;33.00;67.10
15413;DHT22;7805;49.554;7.632;2023-06-19T13:46:16;33.30;66.90
15413;DHT22;7805;49.554;7.632;2023-06-19T13:48:42;33.40;65.90
15413;DHT22;7805;49.554;7.632;2023-06-19T13:51:08;33.50;64.80
15413;DHT22;7805;49.554;7.632;2023-06-19T13:53:33;32.80;65.00
15413;DHT22;7805;49.554;7.632;2023-06-19T13:55:59;32.90;66.40
15413;DHT22;7805;49.554;7.632;2023-06-19T13:58:25;33.10;65.90
15413;DHT22;7805;49.554;7.632;2023-06-19T14:00:50;32.90;65.90
15413;DHT22;7805;49.554;7.632;2023-06-19T14:03:16;32.90;66.50
15413;DHT22;7805;49.554;7.632;2023-06-19T14:05:41;32.60;66.20
15413;DHT22;7805;49.554;7.632;2023-06-19T14:08:08;32.00;67.20
15413;DHT22;7805;49.554;7.632;2023-06-19T14:10:34;31.80;68.40
15413;DHT22;7805;49.554;7.632;2023-06-19T14:13:00;31.80;69.20
15413;DHT22;7805;49.554;7.632;2023-06-19T14:15:26;31.80;69.40
15413;DHT22;7805;49.554;7.632;2023-06-19T14:17:51;31.50;68.90
15413;DHT22;7805;49.554;7.632;2023-06-19T14:20:17;31.40;69.90
15413;DHT22;7805;49.554;7.632;2023-06-19T14:22:43;31.50;70.70
15413;DHT22;7805;49.554;7.632;2023-06-19T14:25:08;31.10;71.30
15413;DHT22;7805;49.554;7.632;2023-06-19T14:27:34;31.00;72.40
15413;DHT22;7805;49.554;7.632;2023-06-19T14:29:59;31.00;73.00
15413;DHT22;7805;49.554;7.632;2023-06-19T14:32:25;30.90;73.20
15413;DHT22;7805;49.554;7.632;2023-06-19T14:34:51;30.60;73.70
15413;DHT22;7805;49.554;7.632;2023-06-19T14:37:16;30.40;74.50
15413;DHT22;7805;49.554;7.632;2023-06-19T14:39:42;30.40;75.10
15413;DHT22;7805;49.554;7.632;2023-06-19T14:42:08;30.20;75.70
15413;DHT22;7805;49.554;7.632;2023-06-19T14:44:35;30.10;76.70
15413;DHT22;7805;49.554;7.632;2023-06-19T14:47:01;30.10;77.50
15413;DHT22;7805;49.554;7.632;2023-06-19T14:49:27;29.90;78.30
15413;DHT22;7805;49.554;7.632;2023-06-19T14:51:53;29.90;78.40
15413;DHT22;7805;49.554;7.632;2023-06-19T14:54:19;30.20;78.20
15413;DHT22;7805;49.554;7.632;2023-06-19T14:56:45;30.30;77.80
15413;DHT22;7805;49.554;7.632;2023-06-19T14:59:13;30.50;77.60
15413;DHT22;7805;49.554;7.632;2023-06-19T15:01:39;30.40;77.50
15413;DHT22;7805;49.554;7.632;2023-06-19T15:04:05;30.40;78.30
15413;DHT22;7805;49.554;7.632;2023-06-19T15:06:31;30.60;78.80
15413;DHT22;7805;49.554;7.632;2023-06-19T15:08:57;30.70;78.30
15413;DHT22;7805;49.554;7.632;2023-06-19T15:11:22;31.00;78.00
15413;DHT22;7805;49.554;7.632;2023-06-19T15:13:48;31.40;77.70
15413;DHT22;7805;49.554;7.632;2023-06-19T15:16:14;31.90;77.40
15413;DHT22;7805;49.554;7.632;2023-06-19T15:18:40;32.40;75.40
15413;DHT22;7805;49.554;7.632;2023-06-19T15:21:05;32.50;74.00
15413;DHT22;7805;49.554;7.632;2023-06-19T15:23:35;32.70;73.40
15413;DHT22;7805;49.554;7.632;2023-06-19T15:26:01;32.70;72.80
15413;DHT22;7805;49.554;7.632;2023-06-19T15:28:26;32.60;72.30
15413;DHT22;7805;49.554;7.632;2023-06-19T15:30:52;32.40;72.80
15413;DHT22;7805;49.554;7.632;2023-06-19T15:33:18;32.50;73.70
15413;DHT22;7805;49.554;7.632;2023-06-19T15:35:44;33.00;73.40
15413;DHT22;7805;49.554;7.632;2023-06-19T15:38:09;33.30;72.30
15413;DHT22;7805;49.554;7.632;2023-06-19T15:40:35;33.10;71.20
15413;DHT22;7805;49.554;7.632;2023-06-19T15:43:01;33.20;71.90
15413;DHT22;7805;49.554;7.632;2023-06-19T15:45:26;33.70;71.00
15413;DHT22;7805;49.554;7.632;2023-06-19T15:47:52;33.90;69.60
15413;DHT22;7805;49.554;7.632;2023-06-19T15:50:18;33.60;69.30
15413;DHT22;7805;49.554;7.632;2023-06-19T15:52:44;33.40;69.40
15413;DHT22;7805;49.554;7.632;2023-06-19T15:55:09;33.30;69.80
15413;DHT22;7805;49.554;7.632;2023-06-19T15:57:35;33.40;70.10
15413;DHT22;7805;49.554;7.632;2023-06-19T16:00:01;33.40;70.00